createdAt,value
2018-09-05T00:01:06.382Z,16.67
2018-09-05T00:03:35.710Z,18.53
2018-09-05T00:06:06.630Z,17.70
2018-09-05T00:08:36.031Z,18.77
2018-09-05T00:11:06.524Z,18.98
2018-09-05T00:13:35.943Z,18.83
2018-09-05T00:16:06.147Z,18.03
2018-09-05T00:18:35.474Z,20.17
2018-09-05T00:21:06.180Z,18.57
2018-09-05T00:23:35.536Z,17.70
2018-09-05T00:26:06.275Z,17.17
2018-09-05T00:28:35.704Z,18.20
2018-09-05T00:31:06.467Z,16.77
2018-09-05T00:33:35.827Z,16.33
2018-09-05T00:36:06.665Z,18.67
2018-09-05T00:38:36.006Z,17.98
2018-09-05T00:41:06.158Z,17.70
2018-09-05T00:43:36.570Z,16.50
2018-09-05T00:46:06.152Z,16.00
2018-09-05T00:48:35.522Z,17.07
2018-09-05T00:51:06.234Z,16.67
2018-09-05T00:53:35.614Z,15.37
2018-09-05T00:56:06.598Z,13.37
2018-09-05T00:58:36.583Z,17.27
2018-09-05T01:01:07.141Z,17.27
2018-09-05T01:03:36.514Z,15.90
2018-09-05T01:06:06.239Z,15.00
2018-09-05T01:08:36.317Z,15.70
2018-09-05T01:11:07.196Z,14.95
2018-09-05T01:13:36.594Z,17.00
2018-09-05T01:16:06.550Z,15.43
2018-09-05T01:18:36.055Z,15.73
2018-09-05T01:21:06.596Z,15.50
2018-09-05T01:23:35.953Z,15.63
2018-09-05T01:26:06.550Z,14.58
2018-09-05T01:28:35.891Z,15.27
2018-09-05T01:31:06.187Z,13.77
2018-09-05T01:33:36.087Z,15.00
2018-09-05T01:36:12.529Z,15.60
2018-09-05T01:38:42.595Z,14.90
2018-09-05T01:41:13.240Z,16.20
2018-09-05T01:43:43.437Z,17.17
2018-09-05T01:46:12.822Z,16.67
2018-09-05T01:48:42.141Z,13.60
2018-09-05T01:51:11.646Z,15.80
2018-09-05T01:53:40.933Z,15.20
2018-09-05T01:56:10.337Z,14.85
2018-09-05T01:58:39.704Z,14.77
2018-09-05T02:01:09.121Z,14.60
2018-09-05T02:03:38.486Z,15.80
2018-09-05T02:06:07.878Z,15.80
2018-09-05T02:08:37.346Z,15.50
2018-09-05T02:11:07.405Z,15.80
2018-09-05T02:13:37.667Z,15.00
2018-09-05T02:16:08.123Z,14.03
2018-09-05T02:18:37.713Z,15.97
2018-09-05T02:21:07.126Z,18.50
2018-09-05T02:23:36.595Z,14.30
2018-09-05T02:26:06.245Z,17.43
2018-09-05T02:28:35.602Z,15.47
2018-09-05T02:31:08.148Z,16.67
2018-09-05T02:33:37.703Z,15.27
2018-09-05T02:36:09.459Z,15.40
2018-09-05T02:38:39.496Z,17.73
2018-09-05T02:41:08.925Z,15.80
2018-09-05T02:43:44.208Z,15.13
2018-09-05T02:46:13.658Z,17.50
2018-09-05T02:48:43.204Z,15.53
2018-09-05T02:51:12.559Z,17.82
2018-09-05T02:53:42.422Z,15.60
2018-09-05T02:56:11.788Z,16.63
2018-09-05T02:58:41.102Z,15.80
2018-09-05T03:01:11.454Z,16.87
2018-09-05T03:03:40.862Z,15.57
2018-09-05T03:06:10.337Z,19.02
2018-09-05T03:08:39.810Z,17.62
2018-09-05T03:11:10.368Z,17.07
2018-09-05T03:13:39.802Z,16.57
2018-09-05T03:16:09.924Z,16.03
2018-09-05T03:18:40.100Z,17.27
2018-09-05T03:21:09.505Z,18.17
2018-09-05T03:23:38.845Z,15.80
2018-09-05T03:26:08.803Z,15.67
2018-09-05T03:28:38.245Z,16.33
2018-09-05T03:31:07.969Z,16.67
2018-09-05T03:33:37.953Z,16.30
2018-09-05T03:36:07.398Z,16.20
2018-09-05T03:38:36.790Z,17.57
2018-09-05T03:41:06.602Z,15.13
2018-09-05T03:43:35.930Z,15.07
2018-09-05T03:46:06.662Z,15.58
2018-09-05T03:48:36.010Z,16.80
2018-09-05T03:51:06.534Z,18.00
2018-09-05T03:53:36.733Z,17.60
2018-09-05T03:56:06.254Z,17.53
2018-09-05T03:58:35.673Z,17.33
2018-09-05T04:01:06.716Z,16.36
2018-09-05T04:03:36.126Z,16.37
2018-09-05T04:06:06.348Z,18.48
2018-09-05T04:08:35.747Z,14.60
2018-09-05T04:11:06.445Z,17.27
2018-09-05T04:13:35.729Z,13.40
2018-09-05T04:16:06.578Z,14.90
2018-09-05T04:18:35.981Z,15.50
2018-09-05T04:21:05.983Z,14.70
2018-09-05T04:23:39.959Z,16.30
2018-09-05T04:26:09.577Z,16.20
2018-09-05T04:28:38.970Z,13.10
2018-09-05T04:31:09.279Z,13.47
2018-09-05T04:33:38.763Z,19.03
2018-09-05T04:36:08.856Z,16.17
2018-09-05T04:38:38.334Z,17.03
2018-09-05T04:41:07.690Z,19.07
2018-09-05T04:43:37.001Z,14.87
2018-09-05T04:46:06.369Z,17.40
2018-09-05T04:48:35.951Z,14.77
2018-09-05T04:51:06.275Z,16.32
2018-09-05T04:53:35.749Z,17.50
2018-09-05T04:56:07.444Z,19.25
2018-09-05T04:58:36.987Z,18.10
2018-09-05T05:01:06.532Z,16.73
2018-09-05T05:03:35.833Z,20.00
2018-09-05T05:06:06.504Z,20.77
2018-09-05T05:08:35.879Z,17.30
2018-09-05T05:11:06.494Z,14.73
2018-09-05T05:13:38.654Z,18.57
2018-09-05T05:16:08.348Z,17.53
2018-09-05T05:18:37.714Z,17.30
2018-09-05T05:21:06.999Z,16.67
2018-09-05T05:23:36.342Z,17.07
2018-09-05T05:26:06.365Z,16.95
2018-09-05T05:28:35.801Z,16.40
2018-09-05T05:31:06.053Z,16.97
2018-09-05T05:33:36.045Z,14.43
2018-09-05T05:36:07.175Z,15.48
2018-09-05T05:38:37.387Z,18.60
2018-09-05T05:41:07.658Z,15.97
2018-09-05T05:43:37.338Z,17.33
2018-09-05T05:46:07.195Z,17.63
2018-09-05T05:48:37.313Z,17.47
2018-09-05T05:51:07.154Z,19.37
2018-09-05T05:53:36.548Z,20.40
2018-09-05T05:56:06.034Z,17.75
2018-09-05T05:58:35.410Z,19.40
2018-09-05T06:01:06.296Z,16.90
2018-09-05T06:03:36.022Z,18.70
2018-09-05T06:06:08.191Z,17.92
2018-09-05T06:08:37.750Z,18.17
2018-09-05T06:11:07.338Z,19.80
2018-09-05T06:13:36.690Z,21.10
2018-09-05T06:16:06.424Z,18.92
2018-09-05T06:18:35.999Z,20.80
2018-09-05T06:21:06.453Z,19.23
2018-09-05T06:23:35.976Z,20.97
2018-09-05T06:26:06.486Z,22.37
2018-09-05T06:28:35.981Z,20.87
2018-09-05T06:31:06.723Z,21.37
2018-09-05T06:33:35.914Z,20.63
2018-09-05T06:36:09.925Z,23.57
2018-09-05T06:38:39.249Z,22.20
2018-09-05T06:41:08.655Z,22.60
2018-09-05T06:43:38.800Z,21.33
2018-09-05T06:46:08.210Z,20.70
2018-09-05T06:48:37.628Z,21.20
2018-09-05T06:51:08.181Z,20.90
2018-09-05T06:53:38.878Z,21.17
2018-09-05T06:56:08.550Z,20.80
2018-09-05T06:58:38.098Z,21.77
2018-09-05T07:01:07.589Z,20.30
2018-09-05T07:03:36.966Z,20.23
2018-09-05T07:06:07.622Z,18.52
2018-09-05T07:08:37.014Z,21.00
2018-09-05T07:11:06.410Z,19.90
2018-09-05T07:13:36.173Z,20.27
2018-09-05T07:16:06.515Z,19.63
2018-09-05T07:18:36.181Z,19.70
2018-09-05T07:21:07.027Z,18.37
2018-09-05T07:23:37.247Z,19.97
2018-09-05T07:26:06.811Z,18.90
2018-09-05T07:28:36.542Z,19.13
2018-09-05T07:31:06.490Z,20.77
2018-09-05T07:33:35.978Z,19.87
2018-09-05T07:36:06.295Z,19.87
2018-09-05T07:38:35.651Z,22.07
2018-09-05T07:41:12.921Z,19.46
2018-09-05T07:43:42.364Z,18.07
2018-09-05T07:46:11.766Z,18.43
2018-09-05T07:48:41.162Z,17.97
2018-09-05T07:51:11.232Z,16.82
2018-09-05T07:53:40.685Z,17.10
2018-09-05T07:56:10.586Z,16.70
2018-09-05T07:58:40.175Z,15.13
2018-09-05T08:01:10.009Z,16.73
2018-09-05T08:03:39.838Z,16.50
2018-09-05T08:06:09.480Z,16.52
2018-09-05T08:08:38.980Z,16.20
2018-09-05T08:11:08.398Z,15.77
2018-09-05T08:13:37.746Z,17.03
2018-09-05T08:16:07.924Z,15.68
2018-09-05T08:18:37.417Z,17.07
2018-09-05T08:21:07.610Z,15.43
2018-09-05T08:23:36.977Z,15.63
2018-09-05T08:26:06.503Z,16.13
2018-09-05T08:28:35.858Z,15.03
2018-09-05T08:31:06.930Z,16.17
2018-09-05T08:33:38.903Z,16.13
2018-09-05T08:36:08.901Z,15.27
2018-09-05T08:38:37.978Z,16.53
2018-09-05T08:41:11.540Z,14.50
2018-09-05T08:43:41.900Z,14.20
2018-09-05T08:46:11.435Z,14.90
2018-09-05T08:48:40.724Z,14.57
2018-09-05T08:51:10.129Z,13.07
2018-09-05T08:53:40.898Z,12.47
2018-09-05T08:56:11.365Z,12.63
2018-09-05T08:58:40.701Z,12.77
2018-09-05T09:01:10.206Z,13.07
2018-09-05T09:03:39.594Z,12.47
2018-09-05T09:06:09.530Z,12.23
2018-09-05T09:08:39.080Z,12.23
2018-09-05T09:11:09.467Z,12.30
2018-09-05T09:13:39.291Z,10.93
2018-09-05T09:16:08.947Z,11.07
2018-09-05T09:18:38.418Z,10.33
2018-09-05T09:21:07.883Z,9.93
2018-09-05T09:23:37.902Z,11.47
2018-09-05T09:26:10.037Z,11.07
2018-09-05T09:28:39.610Z,11.63
2018-09-05T09:31:09.010Z,11.90
2018-09-05T09:33:39.356Z,11.33
2018-09-05T09:36:12.088Z,12.10
2018-09-05T09:38:41.432Z,10.97
2018-09-05T09:41:10.921Z,10.43
2018-09-05T09:43:40.671Z,11.10
2018-09-05T09:46:10.576Z,9.93
2018-09-05T09:48:40.201Z,9.60
2018-09-05T09:51:09.645Z,10.27
2018-09-05T09:53:39.126Z,9.10
2018-09-05T09:56:09.564Z,9.50
2018-09-05T09:58:38.978Z,9.10
2018-09-05T10:01:13.485Z,8.28
2018-09-05T10:03:48.026Z,8.90
2018-09-05T10:06:20.629Z,8.38
2018-09-05T10:08:55.385Z,7.83
2018-09-05T10:11:30.047Z,7.83
2018-09-05T10:14:04.590Z,7.40
2018-09-05T10:16:39.129Z,7.33
2018-09-05T10:19:09.781Z,7.97
2018-09-05T10:21:39.713Z,7.27
2018-09-05T10:24:09.986Z,7.77
2018-09-05T10:26:39.355Z,7.67
2018-09-05T10:29:08.781Z,6.07
2018-09-05T10:31:38.290Z,6.50
2018-09-05T10:34:08.688Z,6.67
2018-09-05T10:36:38.070Z,7.50
2018-09-05T10:39:09.982Z,6.77
2018-09-05T10:41:41.113Z,5.33
2018-09-05T10:44:10.764Z,5.50
2018-09-05T10:46:41.656Z,6.20
2018-09-05T10:49:12.783Z,5.93
2018-09-05T10:51:47.429Z,5.63
2018-09-05T10:54:16.894Z,5.60
2018-09-05T10:56:46.388Z,5.53
2018-09-05T10:59:15.941Z,5.60
2018-09-05T11:01:45.321Z,6.13
2018-09-05T11:04:14.745Z,5.70
2018-09-05T11:06:44.366Z,6.27
2018-09-05T11:09:13.811Z,5.63
2018-09-05T11:11:44.297Z,5.80
2018-09-05T11:14:13.658Z,5.73
2018-09-05T11:16:43.177Z,5.33
2018-09-05T11:19:14.055Z,5.30
2018-09-05T11:21:43.444Z,5.63
2018-09-05T11:24:12.885Z,5.47
2018-09-05T11:26:42.269Z,5.67
2018-09-05T11:29:11.755Z,5.12
2018-09-05T11:31:41.133Z,5.13
2018-09-05T11:34:10.521Z,5.90
2018-09-05T11:36:39.885Z,5.77
2018-09-05T11:39:12.971Z,5.57
2018-09-05T11:41:42.338Z,5.93
2018-09-05T11:44:12.070Z,5.45
2018-09-05T11:46:41.474Z,6.10
2018-09-05T11:49:10.951Z,5.95
2018-09-05T11:51:40.595Z,5.40
2018-09-05T11:54:10.580Z,5.40
2018-09-05T11:56:41.376Z,5.80
2018-09-05T11:59:10.832Z,5.33
2018-09-05T12:01:40.198Z,6.50
2018-09-05T12:04:11.943Z,7.47
2018-09-05T12:06:41.660Z,5.20
2018-09-05T12:09:12.183Z,6.92
2018-09-05T12:11:41.610Z,6.20
2018-09-05T12:14:11.536Z,7.50
2018-09-05T12:16:40.991Z,5.97
2018-09-05T12:19:10.962Z,6.96
2018-09-05T12:21:40.333Z,6.50
2018-09-05T12:24:10.469Z,5.53
2018-09-05T12:26:41.096Z,5.05
2018-09-05T12:29:12.090Z,5.32
2018-09-05T12:31:42.382Z,5.20
2018-09-05T12:34:12.580Z,5.50
2018-09-05T12:36:42.110Z,5.05
2018-09-05T12:39:22.606Z,5.03
2018-09-05T12:41:52.274Z,5.62
2018-09-05T12:44:21.924Z,5.00
2018-09-05T12:46:51.383Z,5.50
2018-09-05T12:49:20.756Z,5.58
2018-09-05T12:51:50.222Z,5.42
2018-09-05T12:54:19.698Z,5.50
2018-09-05T12:56:49.042Z,4.92
2018-09-05T12:59:18.485Z,5.60
2018-09-05T13:01:48.067Z,5.03
2018-09-05T13:04:17.536Z,5.67
2018-09-05T13:06:47.203Z,5.33
2018-09-05T13:09:16.600Z,5.50
2018-09-05T13:11:47.351Z,5.00
2018-09-05T13:14:21.467Z,5.33
2018-09-05T13:16:50.925Z,5.72
2018-09-05T13:19:20.325Z,5.45
2018-09-05T13:21:49.711Z,5.45
2018-09-05T13:24:19.467Z,5.40
2018-09-05T13:26:49.092Z,4.67
2018-09-05T13:29:18.473Z,4.77
2018-09-05T13:31:47.881Z,5.30
2018-09-05T13:34:20.033Z,5.15
2018-09-05T13:36:49.540Z,4.60
2018-09-05T13:39:19.036Z,4.67
2018-09-05T13:41:49.514Z,5.05
2018-09-05T13:44:18.883Z,4.60
2018-09-05T13:46:48.323Z,4.62
2018-09-05T13:49:17.762Z,4.90
2018-09-05T13:51:52.291Z,4.67
2018-09-05T13:54:21.734Z,5.03
2018-09-05T13:56:52.301Z,4.83
2018-09-05T13:59:21.928Z,5.42
2018-09-05T14:01:51.969Z,5.55
2018-09-05T14:04:21.474Z,5.00
2018-09-05T14:06:50.907Z,4.22
2018-09-05T14:09:20.341Z,4.60
2018-09-05T14:11:49.843Z,5.12
2018-09-05T14:14:19.278Z,4.60
2018-09-05T14:16:48.746Z,4.37
2018-09-05T14:19:18.191Z,4.20
2018-09-05T14:21:48.220Z,4.83
2018-09-05T14:24:17.870Z,4.28
2018-09-05T14:26:47.330Z,5.12
2018-09-05T14:29:16.779Z,4.92
2018-09-05T14:31:46.185Z,4.47
2018-09-05T14:34:15.839Z,4.35
2018-09-05T14:36:45.306Z,4.10
2018-09-05T14:39:14.719Z,5.08
2018-09-05T14:41:44.172Z,4.67
2018-09-05T14:44:13.749Z,4.25
2018-09-05T14:46:43.319Z,4.20
2018-09-05T14:49:13.907Z,4.33
2018-09-05T14:51:43.346Z,3.87
2018-09-05T14:54:12.785Z,3.85
2018-09-05T14:56:45.003Z,4.50
2018-09-05T14:59:14.429Z,4.20
2018-09-05T15:01:43.859Z,4.42
2018-09-05T15:04:13.287Z,4.10
2018-09-05T15:06:49.288Z,4.08
2018-09-05T15:09:19.551Z,3.60
2018-09-05T15:11:49.607Z,3.80
2018-09-05T15:14:19.088Z,4.03
2018-09-05T15:16:48.578Z,3.70
2018-09-05T15:19:18.022Z,3.98
2018-09-05T15:21:47.465Z,3.90
2018-09-05T15:24:16.909Z,4.22
2018-09-05T15:26:46.284Z,4.00
2018-09-05T15:29:15.873Z,3.77
2018-09-05T15:31:45.292Z,3.77
2018-09-05T15:34:14.683Z,3.65
2018-09-05T15:36:44.075Z,3.67
2018-09-05T15:39:13.584Z,4.08
2018-09-05T15:41:42.977Z,3.50
2018-09-05T15:44:12.426Z,4.10
2018-09-05T15:46:42.485Z,3.87
2018-09-05T15:49:12.032Z,3.90
2018-09-05T15:51:41.398Z,3.90
2018-09-05T15:54:11.841Z,3.58
2018-09-05T15:56:41.579Z,4.30
2018-09-05T15:59:11.125Z,4.68
2018-09-05T16:01:40.607Z,4.37
2018-09-05T16:04:11.362Z,4.25
2018-09-05T16:06:40.814Z,4.47
2018-09-05T16:09:11.021Z,3.75
2018-09-05T16:11:40.677Z,4.33
2018-09-05T16:14:10.132Z,4.08
2018-09-05T16:16:39.660Z,4.20
2018-09-05T16:19:09.992Z,4.95
2018-09-05T16:21:39.373Z,4.47
2018-09-05T16:24:08.999Z,5.03
2018-09-05T16:26:38.814Z,4.42
2018-09-05T16:29:08.333Z,4.53
2018-09-05T16:31:38.427Z,4.97
2018-09-05T16:34:08.405Z,4.17
2018-09-05T16:36:37.904Z,4.58
2018-09-05T16:39:10.661Z,4.53
2018-09-05T16:41:40.668Z,4.78
2018-09-05T16:44:10.951Z,5.05
2018-09-05T16:46:40.598Z,4.30
2018-09-05T16:49:10.059Z,4.33
2018-09-05T16:51:39.518Z,4.25
2018-09-05T16:54:10.509Z,4.25
2018-09-05T16:56:40.021Z,4.37
2018-09-05T16:59:10.145Z,4.83
2018-09-05T17:01:39.834Z,4.65
2018-09-05T17:04:09.865Z,5.17
2018-09-05T17:06:40.265Z,4.80
2018-09-05T17:09:11.782Z,4.90
2018-09-05T17:11:41.694Z,4.83
2018-09-05T17:14:11.154Z,4.70
2018-09-05T17:16:43.053Z,5.07
2018-09-05T17:19:13.087Z,4.43
2018-09-05T17:21:42.514Z,4.90
2018-09-05T17:24:11.929Z,4.72
2018-09-05T17:26:41.295Z,4.77
2018-09-05T17:29:11.697Z,5.65
2018-09-05T17:31:41.142Z,5.03
2018-09-05T17:34:10.599Z,4.92
2018-09-05T17:36:40.030Z,5.37
2018-09-05T17:39:11.348Z,5.50
2018-09-05T17:41:53.198Z,4.97
2018-09-05T17:44:22.665Z,5.15
2018-09-05T17:46:52.133Z,5.83
2018-09-05T17:49:21.574Z,5.10
2018-09-05T17:51:50.957Z,6.07
2018-09-05T17:54:20.485Z,6.15
2018-09-05T17:56:50.874Z,5.60
2018-09-05T17:59:20.439Z,5.97
2018-09-05T18:01:51.464Z,6.10
2018-09-05T18:04:24.181Z,5.23
2018-09-05T18:06:53.588Z,5.43
2018-09-05T18:09:23.107Z,5.78
2018-09-05T18:11:52.963Z,5.70
2018-09-05T18:14:22.349Z,5.70
2018-09-05T18:16:51.785Z,6.40
2018-09-05T18:19:21.171Z,7.80
2018-09-05T18:21:50.720Z,6.70
2018-09-05T18:24:20.273Z,7.08
2018-09-05T18:26:49.601Z,6.53
2018-09-05T18:29:23.501Z,6.67
2018-09-05T18:31:53.269Z,6.97
2018-09-05T18:34:22.666Z,6.65
2018-09-05T18:36:52.142Z,7.07
2018-09-05T18:39:21.678Z,7.03
2018-09-05T18:41:51.130Z,7.37
2018-09-05T18:44:20.817Z,6.47
2018-09-05T18:46:50.781Z,7.10
2018-09-05T18:49:20.684Z,6.42
2018-09-05T18:51:50.120Z,6.60
2018-09-05T18:54:19.626Z,6.75
2018-09-05T18:56:49.042Z,7.10
2018-09-05T18:59:58.012Z,7.43
2018-09-05T19:02:27.633Z,7.27
2018-09-05T19:04:57.333Z,7.53
2018-09-05T19:07:26.942Z,8.60
2018-09-05T19:12:38.816Z,7.90
2018-09-05T19:15:08.545Z,7.63
2018-09-05T19:17:38.279Z,7.83
2018-09-05T19:20:08.948Z,7.05
2018-09-05T19:22:39.411Z,7.13
2018-09-05T19:25:09.246Z,8.17
2018-09-05T19:27:38.864Z,7.90
2018-09-05T19:30:08.618Z,7.80
2018-09-05T19:32:38.851Z,7.73
2018-09-05T19:35:08.891Z,7.37
2018-09-05T19:37:38.756Z,7.50
2018-09-05T19:40:08.285Z,7.33
2018-09-05T19:42:38.248Z,7.00
2018-09-05T19:45:07.960Z,7.47
2018-09-05T19:47:37.357Z,8.00
2018-09-05T19:50:07.147Z,7.33
2018-09-05T19:52:36.756Z,7.53
2018-09-05T19:55:06.576Z,7.80
2018-09-05T19:57:35.950Z,7.63
2018-09-05T20:00:06.453Z,7.56
2018-09-05T20:02:35.869Z,7.00
2018-09-05T20:05:05.538Z,8.10
2018-09-05T20:07:35.151Z,7.40
2018-09-05T20:10:04.534Z,8.57
2018-09-05T20:12:33.922Z,8.90
2018-09-05T20:15:03.296Z,7.92
2018-09-05T20:17:32.642Z,7.77
2018-09-05T20:20:01.997Z,8.07
2018-09-05T20:22:31.362Z,7.87
2018-09-05T20:25:00.713Z,6.93
2018-09-05T20:27:30.082Z,7.67
2018-09-05T20:29:59.413Z,8.60
2018-09-05T20:32:28.780Z,7.87
2018-09-05T20:34:58.118Z,8.47
2018-09-05T20:37:28.014Z,9.27
2018-09-05T20:39:57.345Z,8.13
2018-09-05T20:42:27.792Z,8.90
2018-09-05T20:44:57.444Z,8.70
2018-09-05T20:47:26.800Z,9.13
2018-09-05T20:49:56.178Z,9.33
2018-09-05T20:52:25.520Z,8.73
2018-09-05T20:54:54.865Z,10.33
2018-09-05T20:57:24.185Z,11.27
2018-09-05T20:59:53.629Z,10.63
2018-09-05T21:02:22.994Z,10.05
2018-09-05T21:04:52.393Z,10.80
2018-09-05T21:07:21.905Z,9.48
2018-09-05T21:09:51.248Z,10.10
2018-09-05T21:12:20.601Z,10.53
2018-09-05T21:14:49.947Z,10.63
2018-09-05T21:17:19.526Z,11.53
2018-09-05T21:19:50.030Z,11.30
2018-09-05T21:22:19.671Z,9.40
2018-09-05T21:24:49.496Z,11.50
2018-09-05T21:27:19.156Z,10.80
2018-09-05T21:29:48.787Z,12.47
2018-09-05T21:32:18.147Z,10.72
2018-09-05T21:34:47.484Z,11.37
2018-09-05T21:37:16.818Z,9.90
2018-09-05T21:39:46.314Z,11.13
2018-09-05T21:42:15.657Z,12.25
2018-09-05T21:44:44.981Z,12.43
2018-09-05T21:47:14.514Z,11.30
2018-09-05T21:49:44.051Z,12.27
2018-09-05T21:52:13.523Z,10.63
2018-09-05T21:54:42.870Z,11.73
2018-09-05T21:57:12.221Z,12.28
2018-09-05T21:59:41.575Z,12.33
2018-09-05T22:02:10.897Z,11.30
2018-09-05T22:04:40.294Z,12.50
2018-09-05T22:07:09.662Z,13.23
2018-09-05T22:09:38.985Z,12.30
2018-09-05T22:12:08.470Z,11.17
2018-09-05T22:14:37.804Z,14.87
2018-09-05T22:17:07.265Z,11.30
2018-09-05T22:19:36.587Z,15.00
2018-09-05T22:22:06.381Z,13.87
2018-09-05T22:24:35.729Z,12.70
2018-09-05T22:27:05.995Z,14.07
2018-09-05T22:29:35.315Z,14.10
2018-09-05T22:37:12.150Z,13.30
2018-09-05T22:39:41.480Z,18.30
2018-09-05T22:42:12.979Z,16.10
2018-09-05T22:44:59.170Z,18.23
2018-09-05T22:48:47.715Z,18.03
2018-09-05T22:52:13.010Z,16.13
2018-09-05T22:57:24.461Z,18.67
2018-09-05T23:00:11.287Z,21.27
2018-09-05T23:03:27.393Z,22.00
2018-09-05T23:08:38.627Z,19.47
2018-09-05T23:13:32.719Z,22.10
2018-09-05T23:16:22.334Z,23.83
2018-09-05T23:19:45.130Z,23.43
2018-09-05T23:22:23.049Z,23.10
2018-09-05T23:25:00.524Z,22.83
2018-09-05T23:27:38.888Z,24.30
2018-09-05T23:30:12.917Z,22.83
2018-09-05T23:32:50.656Z,23.23
2018-09-05T23:35:28.295Z,21.53
2018-09-05T23:38:07.531Z,27.17
2018-09-05T23:40:46.294Z,22.97
2018-09-05T23:43:24.951Z,25.13
2018-09-05T23:46:02.669Z,23.93
2018-09-05T23:48:41.256Z,26.67
2018-09-05T23:51:18.728Z,26.62
2018-09-05T23:53:56.829Z,28.50
2018-09-05T23:56:36.777Z,24.53
2018-09-05T23:59:13.586Z,27.40
